Time;durP1;ratioP1;P1;durP2;ratioP2;P2;SDS_P1;SDS_P2;PMS_P1;PMS_P2;Temp;Humidity;BMP_temperature;BMP_pressure;BME280_temperature;BME280_humidity;BME280_pressure;Samples;Min_cycle;Max_cycle;Signal;HPM_P1;HPM_P2
2021/10/14 00:00:46;;;;;;;8.60;3.40;;;11.90;99.90;;;;;;5058677;28;20429;-83
2021/10/14 00:03:12;;;;;;;11.20;3.30;;;11.90;99.90;;;;;;5057778;28;20075;-84
2021/10/14 00:05:38;;;;;;;8.80;3.13;;;11.90;99.90;;;;;;5058035;28;20438;-82
2021/10/14 00:08:04;;;;;;;7.37;2.80;;;11.90;99.90;;;;;;5059004;28;20025;-82
2021/10/14 00:10:30;;;;;;;9.73;3.13;;;11.90;99.90;;;;;;5058249;28;20033;-82
2021/10/14 00:12:58;;;;;;;10.30;3.10;;;11.90;99.90;;;;;;5056845;28;20064;-82
2021/10/14 00:15:25;;;;;;;10.55;3.30;;;11.90;99.90;;;;;;5058546;28;20029;-82
2021/10/14 00:17:50;;;;;;;8.23;3.00;;;11.90;99.90;;;;;;5056981;28;20033;-82
2021/10/14 00:20:16;;;;;;;11.03;3.10;;;11.90;99.90;;;;;;5058133;28;20025;-82
2021/10/14 00:22:42;;;;;;;11.10;3.60;;;11.90;99.90;;;;;;5057299;28;20127;-82
2021/10/14 00:25:08;;;;;;;10.07;3.63;;;11.90;99.90;;;;;;5057301;28;20035;-82
2021/10/14 00:27:34;;;;;;;9.97;3.67;;;11.90;99.90;;;;;;5057202;28;20117;-82
2021/10/14 00:29:59;;;;;;;10.67;4.03;;;11.90;99.90;;;;;;5056322;28;20049;-81
2021/10/14 00:32:25;;;;;;;12.23;4.07;;;11.90;99.90;;;;;;5057318;28;20492;-81
2021/10/14 00:34:51;;;;;;;16.03;4.87;;;11.90;99.90;;;;;;5058865;28;20216;-82
2021/10/14 00:37:16;;;;;;;10.27;4.63;;;11.90;99.90;;;;;;5058194;28;20035;-83
2021/10/14 00:39:42;;;;;;;10.40;4.37;;;11.90;99.90;;;;;;5057968;28;20551;-82
2021/10/14 00:42:08;;;;;;;12.05;4.78;;;11.90;99.90;;;;;;5058276;28;20488;-82
2021/10/14 00:45:03;;;;;;;11.67;4.40;;;11.90;99.90;;;;;;5058294;28;20021;-82
2021/10/14 00:47:29;;;;;;;9.47;4.00;;;11.90;99.90;;;;;;5049846;28;20040;-82
2021/10/14 00:49:56;;;;;;;15.13;4.47;;;11.90;99.90;;;;;;5056387;28;20363;-82
2021/10/14 00:52:23;;;;;;;11.67;4.20;;;11.90;99.90;;;;;;5056667;28;20032;-82
2021/10/14 00:54:52;;;;;;;10.40;4.37;;;11.90;99.90;;;;;;5058803;28;20104;-82
2021/10/14 00:57:19;;;;;;;8.90;3.90;;;11.90;99.90;;;;;;5057049;28;20112;-82
2021/10/14 00:59:45;;;;;;;10.97;4.67;;;11.90;99.90;;;;;;5056469;28;20021;-82
2021/10/14 01:02:11;;;;;;;10.98;4.10;;;11.90;99.90;;;;;;5056872;28;20028;-82
2021/10/14 01:04:37;;;;;;;13.03;4.23;;;11.90;99.90;;;;;;5057090;28;20028;-82
2021/10/14 01:07:03;;;;;;;16.47;4.57;;;11.90;99.90;;;;;;5056950;28;20032;-83
2021/10/14 01:09:29;;;;;;;10.40;4.60;;;11.90;99.90;;;;;;5056308;28;20032;-82
2021/10/14 01:12:03;;;;;;;10.53;3.90;;;11.90;99.90;;;;;;5058777;28;20490;-82
2021/10/14 01:14:30;;;;;;;8.37;4.20;;;11.90;99.90;;;;;;5058278;28;20024;-83
2021/10/14 01:16:56;;;;;;;9.33;3.90;;;11.90;99.90;;;;;;5058168;28;20020;-83
2021/10/14 01:19:22;;;;;;;9.27;4.03;;;11.90;99.90;;;;;;5058077;28;20474;-82
2021/10/14 01:21:49;;;;;;;13.00;4.00;;;11.90;99.90;;;;;;5057593;28;20029;-82
2021/10/14 01:24:16;;;;;;;9.83;4.37;;;11.90;99.90;;;;;;5056927;28;20120;-83
2021/10/14 01:26:42;;;;;;;11.68;4.45;;;11.90;99.90;;;;;;5058259;28;20028;-83
2021/10/14 01:29:08;;;;;;;13.17;5.23;;;11.90;99.90;;;;;;5058003;28;20485;-82
2021/10/14 01:31:33;;;;;;;14.33;5.10;;;11.90;99.90;;;;;;5056930;28;20028;-82
2021/10/14 01:34:00;;;;;;;13.00;5.20;;;11.90;99.90;;;;;;5057358;28;20029;-82
2021/10/14 01:36:26;;;;;;;12.87;5.60;;;11.90;99.90;;;;;;5057126;28;20112;-82
2021/10/14 01:38:51;;;;;;;12.23;5.90;;;11.90;99.90;;;;;;5056154;28;20060;-83
2021/10/14 01:41:17;;;;;;;11.30;6.20;;;11.80;99.90;;;;;;5057896;28;20127;-82
2021/10/14 01:43:43;;;;;;;14.03;5.77;;;11.80;99.90;;;;;;5057817;28;20075;-82
2021/10/14 01:46:10;;;;;;;11.73;5.77;;;11.70;99.90;;;;;;5056807;28;20081;-82
2021/10/14 01:48:35;;;;;;;14.60;5.67;;;11.70;99.90;;;;;;5057196;28;20032;-82
2021/10/14 01:51:03;;;;;;;15.63;6.53;;;11.60;99.90;;;;;;5056294;28;20114;-82
2021/10/14 01:53:29;;;;;;;16.10;5.93;;;11.60;99.90;;;;;;5058059;28;20032;-82
2021/10/14 01:55:55;;;;;;;12.77;5.73;;;11.60;99.90;;;;;;5058010;28;20029;-82
2021/10/14 01:58:21;;;;;;;12.53;5.70;;;11.60;99.90;;;;;;5056990;28;20121;-82
2021/10/14 02:00:49;;;;;;;14.17;6.03;;;11.60;99.90;;;;;;5057076;28;20454;-82
2021/10/14 02:03:15;;;;;;;11.40;6.47;;;11.50;99.90;;;;;;5057740;28;20021;-83
2021/10/14 02:05:40;;;;;;;12.17;6.60;;;11.50;99.90;;;;;;5057690;28;20071;-82
2021/10/14 02:08:06;;;;;;;15.83;6.50;;;11.50;99.90;;;;;;5058790;28;20032;-83
2021/10/14 02:10:32;;;;;;;12.97;6.73;;;11.50;99.90;;;;;;5055752;28;20439;-83
2021/10/14 02:12:58;;;;;;;12.97;6.90;;;11.40;99.90;;;;;;5058284;28;20438;-82
2021/10/14 02:15:24;;;;;;;12.70;6.67;;;11.40;99.90;;;;;;5055130;28;20036;-82
2021/10/14 02:17:50;;;;;;;17.73;7.17;;;11.40;99.90;;;;;;5056999;28;20021;-82
2021/10/14 02:20:16;;;;;;;18.67;7.67;;;11.30;99.90;;;;;;5055995;28;20029;-83
2021/10/14 02:22:42;;;;;;;15.97;7.93;;;11.30;99.90;;;;;;5055048;28;20021;-82
2021/10/14 02:25:09;;;;;;;17.87;8.07;;;11.30;99.90;;;;;;5054931;28;20029;-81
2021/10/14 02:27:35;;;;;;;18.43;8.10;;;11.20;99.90;;;;;;5056502;28;20539;-82
2021/10/14 02:30:02;;;;;;;16.80;8.23;;;11.20;99.90;;;;;;5054580;28;20029;-81
2021/10/14 02:32:28;;;;;;;16.77;8.10;;;11.30;99.90;;;;;;5055382;28;20021;-81
2021/10/14 02:34:56;;;;;;;16.03;7.87;;;11.20;99.90;;;;;;5054275;28;20025;-82
2021/10/14 02:37:23;;;;;;;15.25;8.15;;;11.20;99.90;;;;;;5053843;28;20405;-81
2021/10/14 02:39:48;;;;;;;15.27;7.37;;;11.20;99.90;;;;;;5055165;28;20033;-81
2021/10/14 02:42:14;;;;;;;14.97;7.53;;;11.20;99.90;;;;;;5053494;28;20504;-81
2021/10/14 02:44:40;;;;;;;16.27;7.73;;;11.20;99.90;;;;;;5053922;28;20505;-82
2021/10/14 02:47:05;;;;;;;14.57;8.10;;;11.20;99.90;;;;;;5054537;28;20029;-81
2021/10/14 02:49:31;;;;;;;14.07;7.60;;;11.20;99.90;;;;;;5053908;28;20021;-81
2021/10/14 02:51:56;;;;;;;19.93;8.90;;;11.20;99.90;;;;;;5054742;28;20239;-82
2021/10/14 02:54:22;;;;;;;15.03;8.93;;;11.20;99.90;;;;;;5055583;28;20029;-81
2021/10/14 02:56:48;;;;;;;18.37;9.00;;;11.20;99.90;;;;;;5053648;28;20021;-81
2021/10/14 02:59:13;;;;;;;14.80;7.87;;;11.20;99.90;;;;;;5053279;28;20094;-82
2021/10/14 03:01:39;;;;;;;17.73;8.57;;;11.20;99.90;;;;;;5054037;28;20025;-82
2021/10/14 03:04:05;;;;;;;14.13;8.57;;;11.20;99.90;;;;;;5053918;28;20071;-81
2021/10/14 03:06:31;;;;;;;14.27;8.07;;;11.20;99.90;;;;;;5053935;28;20131;-81
2021/10/14 03:08:56;;;;;;;20.00;9.30;;;11.20;99.90;;;;;;5053057;28;20061;-81
2021/10/14 03:11:22;;;;;;;16.00;7.67;;;11.30;99.90;;;;;;5053810;28;20375;-83
2021/10/14 03:13:47;;;;;;;15.00;8.80;;;11.30;99.90;;;;;;5053518;28;20036;-82
2021/10/14 03:16:13;;;;;;;17.30;8.60;;;11.30;99.90;;;;;;5055365;28;20064;-82
2021/10/14 03:18:39;;;;;;;15.50;8.83;;;11.20;99.90;;;;;;5053745;28;20029;-82
2021/10/14 03:21:05;;;;;;;17.33;10.03;;;11.20;99.90;;;;;;5053096;28;20025;-82
2021/10/14 03:23:31;;;;;;;19.20;9.40;;;11.30;99.90;;;;;;5054896;28;20021;-82
2021/10/14 03:25:57;;;;;;;19.77;9.50;;;11.30;99.90;;;;;;5054853;28;20047;-82
2021/10/14 03:28:22;;;;;;;16.97;8.67;;;11.30;99.90;;;;;;5054937;28;20100;-82
2021/10/14 03:30:48;;;;;;;17.83;8.80;;;11.30;99.90;;;;;;5053424;28;20078;-82
2021/10/14 03:33:14;;;;;;;16.27;9.00;;;11.30;99.90;;;;;;5054992;28;20028;-82
2021/10/14 03:35:39;;;;;;;18.80;9.50;;;11.30;99.90;;;;;;5054176;28;20558;-81
2021/10/14 03:38:05;;;;;;;19.77;9.20;;;11.30;99.90;;;;;;5053446;28;20436;-82
2021/10/14 03:40:30;;;;;;;14.60;9.20;;;11.30;99.90;;;;;;5054595;28;20021;-82
2021/10/14 03:42:56;;;;;;;17.23;9.70;;;11.30;99.90;;;;;;5055167;28;20083;-82
2021/10/14 03:45:22;;;;;;;19.30;9.13;;;11.30;99.90;;;;;;5058306;28;20025;-82
2021/10/14 03:47:48;;;;;;;20.70;10.07;;;11.30;99.90;;;;;;5056605;28;20162;-82
2021/10/14 03:50:14;;;;;;;15.80;9.60;;;11.30;99.90;;;;;;5056761;28;20470;-82
2021/10/14 03:52:39;;;;;;;19.00;11.20;;;11.30;99.90;;;;;;5057625;28;20344;-83
2021/10/14 03:55:07;;;;;;;18.97;10.97;;;11.30;99.90;;;;;;5058930;28;20029;-83
2021/10/14 03:57:34;;;;;;;24.47;11.63;;;11.30;99.90;;;;;;5056888;28;20044;-82
2021/10/14 03:59:59;;;;;;;17.60;11.00;;;11.30;99.90;;;;;;5056445;28;20031;-82
2021/10/14 04:02:25;;;;;;;18.10;11.07;;;11.30;99.90;;;;;;5057678;28;20021;-83
2021/10/14 04:04:50;;;;;;;22.43;12.43;;;11.30;99.90;;;;;;5057663;28;20032;-82
2021/10/14 04:07:16;;;;;;;25.20;14.87;;;11.30;99.90;;;;;;5056926;28;20033;-82
2021/10/14 04:09:42;;;;;;;24.43;14.63;;;11.30;99.90;;;;;;5058911;28;20025;-83
2021/10/14 04:12:07;;;;;;;30.87;17.10;;;11.30;99.90;;;;;;5057225;28;20367;-82
2021/10/14 04:14:33;;;;;;;29.67;16.57;;;11.30;99.90;;;;;;5057853;28;20023;-82
2021/10/14 04:16:59;;;;;;;29.83;17.90;;;11.30;99.90;;;;;;5058362;28;20025;-82
2021/10/14 04:19:25;;;;;;;31.80;17.47;;;11.30;99.90;;;;;;5061709;28;20025;-82
2021/10/14 04:21:50;;;;;;;32.13;16.70;;;11.40;99.90;;;;;;5057138;28;20386;-83
2021/10/14 04:24:18;;;;;;;41.40;17.23;;;11.30;99.90;;;;;;5057333;28;20029;-83
2021/10/14 04:26:43;;;;;;;32.23;17.80;;;11.30;99.90;;;;;;5056454;28;20025;-82
2021/10/14 04:29:09;;;;;;;30.27;17.83;;;11.40;99.90;;;;;;5058523;28;20460;-81
2021/10/14 04:31:35;;;;;;;34.03;16.70;;;11.30;99.90;;;;;;5059994;28;20032;-82
2021/10/14 04:34:01;;;;;;;31.27;17.00;;;11.30;99.90;;;;;;5057583;28;20025;-83
2021/10/14 04:36:26;;;;;;;27.13;15.90;;;11.30;99.90;;;;;;5056516;28;20473;-83
2021/10/14 04:38:53;;;;;;;30.27;16.00;;;11.30;99.90;;;;;;5055573;28;20119;-81
2021/10/14 04:41:19;;;;;;;26.23;14.70;;;11.30;99.90;;;;;;5058870;28;20021;-82
2021/10/14 04:43:45;;;;;;;27.03;15.73;;;11.30;99.90;;;;;;5056942;28;20436;-83
2021/10/14 04:46:11;;;;;;;26.50;15.13;;;11.30;99.90;;;;;;5059452;28;20036;-83
2021/10/14 04:48:36;;;;;;;26.47;15.00;;;11.40;99.90;;;;;;5059743;28;20384;-83
2021/10/14 04:51:02;;;;;;;24.43;14.40;;;11.40;99.90;;;;;;5060248;28;20036;-83
2021/10/14 04:53:28;;;;;;;25.93;14.33;;;11.40;99.90;;;;;;5061525;28;20048;-82
2021/10/14 04:55:53;;;;;;;23.17;13.83;;;11.40;99.90;;;;;;5063510;28;20375;-82
2021/10/14 04:58:19;;;;;;;28.20;14.73;;;11.40;99.90;;;;;;5062714;28;20021;-83
2021/10/14 05:00:44;;;;;;;30.03;13.93;;;11.40;99.90;;;;;;5059069;28;20470;-83
2021/10/14 05:03:10;;;;;;;21.83;13.00;;;11.40;99.90;;;;;;5058048;28;20017;-83
2021/10/14 05:05:36;;;;;;;24.03;13.40;;;11.40;99.90;;;;;;5058054;28;20025;-83
2021/10/14 05:08:02;;;;;;;30.33;14.43;;;11.40;99.90;;;;;;5058653;28;20029;-83
2021/10/14 05:10:28;;;;;;;27.73;14.67;;;11.40;99.90;;;;;;5060678;28;20032;-81
2021/10/14 05:12:53;;;;;;;21.87;13.80;;;11.30;99.90;;;;;;5063546;28;20025;-82
2021/10/14 05:15:19;;;;;;;21.37;12.80;;;11.30;99.90;;;;;;5059132;28;20021;-82
2021/10/14 05:17:44;;;;;;;23.33;13.03;;;11.30;99.90;;;;;;5059411;28;20398;-82
2021/10/14 05:20:10;;;;;;;27.67;14.53;;;11.40;99.90;;;;;;5061754;28;20029;-83
2021/10/14 05:22:36;;;;;;;21.17;12.50;;;11.30;99.90;;;;;;5060583;28;20492;-82
2021/10/14 05:25:02;;;;;;;27.83;14.90;;;11.40;99.90;;;;;;5056701;28;20120;-82
2021/10/14 05:27:27;;;;;;;26.07;15.37;;;11.30;99.90;;;;;;5058462;28;20029;-82
2021/10/14 05:29:53;;;;;;;23.10;14.00;;;11.40;99.90;;;;;;5056379;28;20029;-82
2021/10/14 05:32:19;;;;;;;28.13;15.37;;;11.40;99.90;;;;;;5056087;28;20029;-82
2021/10/14 05:34:44;;;;;;;28.10;14.90;;;11.40;99.90;;;;;;5057870;28;20043;-82
2021/10/14 05:37:10;;;;;;;25.93;14.83;;;11.40;99.90;;;;;;5058288;28;20447;-82
2021/10/14 05:39:36;;;;;;;25.97;14.33;;;11.40;99.90;;;;;;5056734;28;20047;-82
2021/10/14 05:42:01;;;;;;;27.07;14.47;;;11.40;99.90;;;;;;5056564;28;20025;-82
2021/10/14 05:44:27;;;;;;;22.30;13.37;;;11.40;99.90;;;;;;5056269;28;20052;-82
2021/10/14 05:46:53;;;;;;;25.80;14.10;;;11.30;99.90;;;;;;5056752;28;20075;-82
2021/10/14 05:49:18;;;;;;;24.27;14.80;;;11.40;99.90;;;;;;5055693;28;20031;-81
2021/10/14 05:51:44;;;;;;;26.60;14.90;;;11.30;99.90;;;;;;5058122;28;20028;-82
2021/10/14 05:54:09;;;;;;;23.70;13.87;;;11.30;99.90;;;;;;5056008;28;20021;-82
2021/10/14 05:56:35;;;;;;;23.30;13.63;;;11.40;99.90;;;;;;5057822;28;20033;-82
2021/10/14 05:59:01;;;;;;;26.83;14.97;;;11.40;99.90;;;;;;5055983;28;20099;-82
2021/10/14 06:01:26;;;;;;;27.50;15.90;;;11.40;99.90;;;;;;5057462;28;20055;-82
2021/10/14 06:03:54;;;;;;;26.73;15.20;;;11.40;99.90;;;;;;5054787;28;20021;-82
2021/10/14 06:06:19;;;;;;;30.20;15.50;;;11.40;99.90;;;;;;5078618;23;20033;-83
2021/10/14 06:08:45;;;;;;;32.93;15.30;;;11.40;99.90;;;;;;5055455;28;20384;-81
2021/10/14 06:11:13;;;;;;;35.17;19.17;;;11.40;99.90;;;;;;5054830;28;20029;-82
2021/10/14 06:13:39;;;;;;;31.10;17.20;;;11.40;99.90;;;;;;5054180;28;20078;-83
2021/10/14 06:16:05;;;;;;;31.43;17.67;;;11.40;99.90;;;;;;5055557;28;20029;-82
2021/10/14 06:18:32;;;;;;;28.60;16.60;;;11.40;99.90;;;;;;5054937;28;20369;-82
2021/10/14 06:20:58;;;;;;;29.47;17.50;;;11.40;99.90;;;;;;5055420;28;20071;-82
2021/10/14 06:23:24;;;;;;;32.97;18.50;;;11.40;99.90;;;;;;5056169;28;20025;-83
2021/10/14 06:25:49;;;;;;;29.23;18.30;;;11.40;99.90;;;;;;5055563;28;20098;-82
2021/10/14 06:28:15;;;;;;;37.77;18.80;;;11.30;99.90;;;;;;5054380;28;20059;-82
2021/10/14 06:30:41;;;;;;;41.33;18.03;;;11.40;99.90;;;;;;5054328;28;20021;-82
2021/10/14 06:33:06;;;;;;;47.43;20.73;;;11.40;99.90;;;;;;5054591;28;20028;-82
2021/10/14 06:35:32;;;;;;;39.53;20.47;;;11.30;99.90;;;;;;5054751;28;20048;-82
2021/10/14 06:37:58;;;;;;;38.07;20.60;;;11.30;99.90;;;;;;5062237;28;20029;-83
2021/10/14 06:40:24;;;;;;;34.37;20.03;;;11.30;99.90;;;;;;5063631;28;20024;-82
2021/10/14 06:42:50;;;;;;;34.80;19.73;;;11.30;99.90;;;;;;5064236;28;20021;-83
2021/10/14 06:45:16;;;;;;;33.27;19.87;;;11.40;99.90;;;;;;5064800;28;20569;-83
2021/10/14 06:47:41;;;;;;;35.07;20.53;;;11.40;99.90;;;;;;5064344;28;20041;-83
2021/10/14 06:50:07;;;;;;;39.67;22.07;;;11.30;99.90;;;;;;5063935;28;20028;-84
2021/10/14 06:52:33;;;;;;;41.63;23.50;;;11.30;99.90;;;;;;5062891;28;20457;-83
2021/10/14 06:54:59;;;;;;;37.33;22.13;;;11.30;99.90;;;;;;5065146;28;20029;-83
2021/10/14 06:57:25;;;;;;;41.20;22.47;;;11.30;99.90;;;;;;5065733;28;20025;-83
2021/10/14 06:59:51;;;;;;;40.87;23.50;;;11.40;99.90;;;;;;5063568;28;20017;-83
2021/10/14 07:02:17;;;;;;;42.13;23.47;;;11.40;99.90;;;;;;5065613;28;20516;-83
2021/10/14 07:04:42;;;;;;;37.93;23.53;;;11.30;99.90;;;;;;5065018;28;20094;-83
2021/10/14 07:07:08;;;;;;;37.63;23.37;;;11.40;99.90;;;;;;5066856;28;20494;-84
2021/10/14 07:09:33;;;;;;;35.87;23.57;;;11.40;99.90;;;;;;5066585;28;20052;-83
2021/10/14 07:12:07;;;;;;;39.93;22.23;;;11.30;99.90;;;;;;5066603;28;20036;-84
2021/10/14 07:14:33;;;;;;;39.17;22.67;;;11.40;99.90;;;;;;5064677;28;20031;-83
2021/10/14 07:16:58;;;;;;;45.90;25.20;;;11.40;99.90;;;;;;5056674;28;20029;-82
2021/10/14 07:19:24;;;;;;;46.80;26.30;;;11.40;99.90;;;;;;5054357;28;20557;-83
2021/10/14 07:21:49;;;;;;;50.43;26.77;;;11.40;99.90;;;;;;5057185;28;20025;-82
2021/10/14 07:24:17;;;;;;;49.93;27.83;;;11.40;99.90;;;;;;5056405;28;20033;-82
2021/10/14 07:26:43;;;;;;;47.00;25.87;;;11.40;99.90;;;;;;5056021;28;20572;-82
2021/10/14 07:29:09;;;;;;;46.20;26.70;;;11.40;99.90;;;;;;5054918;28;20071;-83
2021/10/14 07:31:34;;;;;;;42.77;24.83;;;11.50;99.90;;;;;;5055854;28;20055;-82
2021/10/14 07:34:00;;;;;;;47.27;26.87;;;11.40;99.90;;;;;;5056867;28;20040;-82
2021/10/14 07:36:26;;;;;;;46.40;25.90;;;11.50;99.90;;;;;;5058710;28;20052;-83
2021/10/14 07:38:51;;;;;;;48.90;27.13;;;11.50;99.90;;;;;;5057003;28;20148;-83
2021/10/14 07:41:17;;;;;;;53.27;28.23;;;11.50;99.90;;;;;;5056227;28;20391;-83
2021/10/14 07:43:43;;;;;;;51.27;26.80;;;11.50;99.90;;;;;;5056350;28;20032;-83
2021/10/14 07:46:08;;;;;;;46.87;25.57;;;11.50;99.90;;;;;;5058350;28;20021;-83
2021/10/14 07:48:35;;;;;;;50.33;28.03;;;11.50;99.90;;;;;;5057284;28;20397;-82
2021/10/14 07:51:01;;;;;;;51.10;26.87;;;11.50;99.90;;;;;;5056041;28;20021;-83
2021/10/14 07:53:27;;;;;;;49.30;25.53;;;11.50;99.90;;;;;;5059354;28;20021;-83
2021/10/14 07:55:53;;;;;;;48.17;26.67;;;11.50;99.90;;;;;;5057902;28;20022;-83
2021/10/14 07:58:19;;;;;;;48.33;26.37;;;11.60;99.90;;;;;;5059302;28;20036;-82
2021/10/14 08:00:45;;;;;;;45.70;23.43;;;11.60;99.90;;;;;;5058361;28;20029;-82
2021/10/14 08:03:11;;;;;;;45.90;25.90;;;11.60;99.90;;;;;;5057264;28;20028;-83
2021/10/14 08:05:37;;;;;;;43.47;24.07;;;11.60;99.90;;;;;;5058654;28;20081;-83
2021/10/14 08:08:04;;;;;;;47.93;26.77;;;11.60;99.90;;;;;;5059389;28;20029;-83
2021/10/14 08:10:31;;;;;;;43.97;24.33;;;11.60;99.90;;;;;;5059333;28;20028;-82
2021/10/14 08:12:57;;;;;;;42.90;24.87;;;11.60;99.90;;;;;;5060503;28;20025;-82
2021/10/14 08:15:23;;;;;;;45.10;25.27;;;11.60;99.90;;;;;;5058898;28;20573;-83
2021/10/14 08:17:49;;;;;;;45.37;25.67;;;11.60;99.90;;;;;;5059887;28;20029;-83
2021/10/14 08:20:15;;;;;;;49.53;25.90;;;11.60;99.90;;;;;;5057661;28;20047;-83
2021/10/14 08:22:40;;;;;;;43.80;24.40;;;11.60;99.90;;;;;;5058308;28;20021;-82
2021/10/14 08:25:12;;;;;;;51.07;25.93;;;11.70;99.90;;;;;;5058803;28;20078;-83
2021/10/14 08:27:39;;;;;;;44.93;24.27;;;11.70;99.90;;;;;;5060423;28;20031;-83
2021/10/14 08:30:06;;;;;;;47.40;25.90;;;11.70;99.90;;;;;;5062455;28;20020;-82
2021/10/14 08:32:31;;;;;;;54.63;26.43;;;11.70;99.90;;;;;;5064296;28;20027;-83
2021/10/14 08:34:57;;;;;;;49.27;26.23;;;11.70;99.90;;;;;;5062810;28;20089;-83
2021/10/14 08:37:23;;;;;;;47.63;24.70;;;11.70;99.90;;;;;;5063493;28;20048;-83
2021/10/14 08:39:50;;;;;;;48.37;27.30;;;11.70;99.90;;;;;;5064696;28;20485;-82
2021/10/14 08:42:16;;;;;;;46.00;25.60;;;11.70;99.90;;;;;;5063441;28;20025;-83
2021/10/14 08:44:41;;;;;;;42.47;25.23;;;11.80;99.90;;;;;;5065753;28;20083;-83
2021/10/14 08:47:09;;;;;;;43.97;25.03;;;11.70;99.90;;;;;;5063729;28;20466;-83
2021/10/14 08:49:36;;;;;;;46.03;25.30;;;11.80;99.90;;;;;;5061927;28;20493;-82
2021/10/14 08:52:02;;;;;;;49.80;24.40;;;11.80;99.90;;;;;;5063400;28;20033;-83
2021/10/14 08:54:27;;;;;;;46.70;24.07;;;11.80;99.90;;;;;;5065039;28;20110;-83
2021/10/14 08:56:53;;;;;;;45.53;24.63;;;11.90;99.90;;;;;;5064024;28;20370;-83
2021/10/14 08:59:18;;;;;;;45.53;23.83;;;11.90;99.90;;;;;;5065725;28;20037;-83
2021/10/14 09:02:10;;;;;;;51.33;25.10;;;11.90;99.90;;;;;;5064472;28;20021;-83
2021/10/14 09:05:03;;;;;;;46.77;25.23;;;11.90;99.90;;;;;;5064710;28;20108;-84
2021/10/14 09:07:31;;;;;;;47.37;25.60;;;11.90;99.90;;;;;;5066493;28;20032;-84
2021/10/14 09:10:12;;;;;;;46.47;23.87;;;11.90;99.90;;;;;;5063908;28;20017;-84
2021/10/14 09:12:45;;;;;;;44.90;25.23;;;11.90;99.90;;;;;;5065409;28;20021;-83
2021/10/14 09:15:15;;;;;;;44.47;23.97;;;11.90;99.90;;;;;;5065471;28;20028;-83
2021/10/14 09:17:52;;;;;;;45.93;23.40;;;11.90;99.90;;;;;;5065042;28;20116;-84
2021/10/14 09:20:31;;;;;;;42.30;22.47;;;11.90;99.90;;;;;;5065883;28;20107;-84
2021/10/14 09:23:21;;;;;;;44.78;23.55;;;12.00;99.90;;;;;;5068602;28;20022;-83
2021/10/14 09:25:52;;;;;;;45.67;22.97;;;12.00;99.90;;;;;;5066802;28;20029;-83
2021/10/14 09:28:19;;;;;;;46.15;24.88;;;12.00;99.90;;;;;;5058680;28;20033;-83
2021/10/14 09:31:00;;;;;;;43.00;22.80;;;12.00;99.90;;;;;;5058374;28;20100;-83
2021/10/14 09:33:43;;;;;;;42.90;23.48;;;12.00;99.90;;;;;;5057689;28;20021;-82
2021/10/14 09:36:25;;;;;;;41.57;21.63;;;12.00;99.90;;;;;;5057814;28;20025;-83
2021/10/14 09:39:01;;;;;;;46.67;22.97;;;12.00;99.90;;;;;;5057745;28;20025;-83
2021/10/14 09:41:27;;;;;;;44.20;22.57;;;12.00;99.90;;;;;;5059593;28;20023;-83
2021/10/14 09:43:55;;;;;;;43.07;22.80;;;12.10;99.90;;;;;;5061037;28;20385;-83
2021/10/14 09:46:40;;;;;;;38.77;21.40;;;12.10;99.90;;;;;;5061225;28;20025;-83
2021/10/14 09:49:28;;;;;;;44.13;23.57;;;12.10;99.90;;;;;;5060238;28;20021;-82
2021/10/14 09:51:56;;;;;;;37.80;20.88;;;12.10;99.90;;;;;;5059785;28;20071;-84
2021/10/14 09:54:23;;;;;;;45.25;25.08;;;12.10;99.90;;;;;;5061572;28;20032;-82
2021/10/14 09:56:49;;;;;;;35.70;21.17;;;12.10;99.90;;;;;;5060234;28;20111;-82
2021/10/14 09:59:14;;;;;;;39.03;20.48;;;12.10;99.90;;;;;;5058781;28;20044;-82
2021/10/14 10:01:41;;;;;;;33.57;20.07;;;12.10;99.90;;;;;;5062136;28;20021;-84
2021/10/14 10:04:08;;;;;;;37.78;19.27;;;12.10;99.90;;;;;;5062000;28;20079;-82
2021/10/14 10:06:36;;;;;;;34.40;19.95;;;12.10;99.90;;;;;;5058380;28;20119;-83
2021/10/14 10:09:14;;;;;;;37.30;20.27;;;12.20;99.90;;;;;;5057130;28;20050;-82
2021/10/14 10:11:47;;;;;;;38.05;20.00;;;12.10;99.90;;;;;;5057365;28;20029;-82
2021/10/14 10:14:14;;;;;;;36.40;19.20;;;12.10;99.90;;;;;;5058774;28;20029;-82
2021/10/14 10:17:02;;;;;;;33.95;19.00;;;12.10;99.90;;;;;;5058604;28;20374;-83
2021/10/14 10:19:50;;;;;;;32.72;17.23;;;12.10;99.90;;;;;;5055817;28;20032;-83
2021/10/14 10:22:34;;;;;;;37.40;18.13;;;12.20;99.90;;;;;;5056414;28;20393;-83
2021/10/14 10:25:18;;;;;;;34.03;17.35;;;12.20;99.90;;;;;;5057519;28;20021;-82
2021/10/14 10:27:44;;;;;;;30.95;17.38;;;12.20;99.90;;;;;;5055934;28;20031;-84
2021/10/14 10:30:24;;;;;;;35.33;17.83;;;12.20;99.90;;;;;;5055227;28;20052;-82
2021/10/14 10:32:50;;;;;;;30.42;16.63;;;12.20;99.90;;;;;;5058767;28;20037;-82
2021/10/14 10:35:40;;;;;;;33.53;17.93;;;12.20;99.90;;;;;;5058552;28;20032;-83
2021/10/14 10:38:35;;;;;;;29.83;15.83;;;12.20;99.90;;;;;;5059519;28;20025;-83
2021/10/14 10:41:03;;;;;;;32.30;17.10;;;12.20;99.90;;;;;;5051747;28;20036;-84
2021/10/14 10:43:30;;;;;;;32.30;17.38;;;12.30;99.90;;;;;;5061047;28;20036;-83
2021/10/14 10:46:03;;;;;;;32.63;16.90;;;12.30;99.90;;;;;;5059953;28;20025;-83
2021/10/14 10:48:38;;;;;;;32.10;16.67;;;12.30;99.90;;;;;;5060840;28;20047;-82
2021/10/14 10:51:06;;;;;;;38.28;17.67;;;12.40;99.90;;;;;;5060188;28;20074;-84
2021/10/14 10:53:44;;;;;;;32.00;16.90;;;12.40;99.90;;;;;;5061970;28;20432;-83
2021/10/14 10:56:34;;;;;;;31.52;16.65;;;12.40;99.90;;;;;;5059892;28;20028;-84
2021/10/14 10:59:01;;;;;;;33.47;16.80;;;12.40;99.90;;;;;;5059530;28;20033;-82
2021/10/14 11:01:27;;;;;;;26.05;15.52;;;12.40;99.90;;;;;;5062081;28;20025;-83
2021/10/14 11:03:57;;;;;;;30.65;16.27;;;12.40;99.90;;;;;;5061503;28;20078;-84
2021/10/14 11:06:24;;;;;;;28.85;15.98;;;12.50;99.90;;;;;;5059393;28;20033;-83
2021/10/14 11:08:51;;;;;;;26.02;14.73;;;12.50;99.90;;;;;;5059095;28;20534;-83
2021/10/14 11:11:19;;;;;;;26.75;15.25;;;12.50;99.90;;;;;;5061206;28;20033;-83
2021/10/14 11:13:47;;;;;;;27.85;15.77;;;12.60;99.90;;;;;;5060397;28;20490;-84
2021/10/14 11:16:14;;;;;;;25.27;14.90;;;12.60;99.90;;;;;;5060095;28;20055;-83
2021/10/14 11:18:42;;;;;;;29.25;15.20;;;12.60;99.90;;;;;;5062712;28;20028;-83
2021/10/14 11:21:11;;;;;;;30.25;15.65;;;12.60;99.90;;;;;;5061751;28;20017;-83
2021/10/14 11:23:40;;;;;;;29.05;14.88;;;12.60;99.90;;;;;;5060505;28;20017;-83
2021/10/14 11:26:08;;;;;;;26.52;14.32;;;12.60;99.90;;;;;;5062617;28;20088;-83
2021/10/14 11:28:50;;;;;;;26.63;14.38;;;12.60;99.90;;;;;;5063261;28;20090;-84
2021/10/14 11:31:22;;;;;;;25.42;13.32;;;12.70;99.90;;;;;;5063233;28;20024;-83
2021/10/14 11:33:47;;;;;;;23.40;12.98;;;12.70;99.90;;;;;;5063544;28;20032;-84
2021/10/14 11:36:13;;;;;;;23.63;13.88;;;12.70;99.90;;;;;;5062962;28;20025;-82
2021/10/14 11:38:39;;;;;;;23.70;13.98;;;12.70;99.90;;;;;;5058556;28;20485;-82
2021/10/14 11:41:14;;;;;;;25.45;13.40;;;12.70;99.90;;;;;;5060165;28;20096;-83
2021/10/14 11:43:40;;;;;;;25.10;13.65;;;12.80;99.90;;;;;;5060608;28;20025;-84
2021/10/14 11:46:06;;;;;;;23.20;13.18;;;12.80;99.90;;;;;;5058359;28;20089;-83
2021/10/14 11:48:34;;;;;;;25.60;13.23;;;12.90;99.90;;;;;;5060245;28;20094;-82
2021/10/14 11:51:08;;;;;;;23.57;13.27;;;13.00;99.90;;;;;;5057883;28;20025;-83
2021/10/14 11:53:35;;;;;;;25.67;13.38;;;13.00;99.90;;;;;;5060128;28;20048;-82
2021/10/14 11:56:04;;;;;;;25.00;12.73;;;13.00;99.90;;;;;;5060595;28;20515;-83
2021/10/14 11:58:30;;;;;;;27.73;12.98;;;13.10;99.90;;;;;;5059995;28;20461;-83
2021/10/14 12:01:00;;;;;;;24.48;13.00;;;13.10;99.90;;;;;;5059424;28;20100;-84
2021/10/14 12:03:26;;;;;;;21.17;11.55;;;13.20;99.90;;;;;;5062318;28;20039;-83
2021/10/14 12:05:52;;;;;;;32.55;13.32;;;13.20;99.90;;;;;;5064290;28;20040;-83
2021/10/14 12:08:18;;;;;;;22.70;11.75;;;13.30;99.90;;;;;;5063177;28;20025;-84
2021/10/14 12:10:52;;;;;;;21.00;11.63;;;13.30;99.90;;;;;;5062179;28;20485;-83
2021/10/14 12:13:27;;;;;;;28.38;13.07;;;13.30;99.90;;;;;;5058566;28;20025;-83
2021/10/14 12:16:13;;;;;;;24.13;12.18;;;13.30;99.90;;;;;;5058493;28;20486;-83
2021/10/14 12:18:40;;;;;;;23.10;12.60;;;13.40;99.90;;;;;;5057240;28;20083;-83
2021/10/14 12:21:35;;;;;;;19.00;11.63;;;13.40;99.90;;;;;;5057777;28;20428;-83
2021/10/14 12:24:23;;;;;;;22.30;12.65;;;13.40;99.90;;;;;;5061930;28;20029;-83
2021/10/14 12:26:54;;;;;;;24.00;12.60;;;13.50;99.90;;;;;;5060165;28;20396;-83
2021/10/14 12:29:28;;;;;;;22.23;12.32;;;13.50;99.90;;;;;;5060508;28;20029;-83
2021/10/14 12:32:11;;;;;;;20.75;12.13;;;13.50;99.90;;;;;;5060481;28;20035;-84
2021/10/14 12:34:45;;;;;;;19.60;11.70;;;13.60;99.90;;;;;;5060642;28;20025;-84